createdAt,value
2018-06-04T00:00:52.641Z,22.96
2018-06-04T00:02:29.827Z,22.87
2018-06-04T00:04:06.687Z,22.92
2018-06-04T00:05:43.820Z,23.00
2018-06-04T00:07:20.226Z,22.99
2018-06-04T00:08:56.500Z,23.14
2018-06-04T00:10:33.207Z,23.09
2018-06-04T00:12:09.963Z,23.06
2018-06-04T00:13:46.382Z,22.82
2018-06-04T00:15:24.322Z,22.49
2018-06-04T00:17:01.638Z,22.36
2018-06-04T00:18:38.515Z,22.07
2018-06-04T00:20:15.550Z,21.99
2018-06-04T00:21:51.843Z,21.82
2018-06-04T00:23:33.942Z,21.66
2018-06-04T00:25:10.729Z,21.59
2018-06-04T00:26:48.038Z,21.64
2018-06-04T00:28:24.219Z,21.77
2018-06-04T00:30:00.307Z,21.74
2018-06-04T00:31:37.035Z,21.75
2018-06-04T00:33:13.319Z,21.99
2018-06-04T00:34:49.624Z,22.13
2018-06-04T00:36:25.929Z,22.23
2018-06-04T00:38:02.606Z,22.34
2018-06-04T00:39:39.073Z,22.51
2018-06-04T00:41:16.236Z,22.71
2018-06-04T00:42:54.175Z,22.69
2018-06-04T00:44:33.926Z,22.67
2018-06-04T00:46:11.385Z,22.69
2018-06-04T00:47:49.024Z,22.49
2018-06-04T00:49:25.385Z,22.52
2018-06-04T00:51:02.632Z,22.55
2018-06-04T00:52:40.152Z,22.52
2018-06-04T00:54:16.521Z,22.50
2018-06-04T00:56:09.213Z,22.51
2018-06-04T00:57:46.501Z,22.68
2018-06-04T00:59:22.996Z,22.67
2018-06-04T01:00:59.715Z,22.72
2018-06-04T01:02:36.022Z,22.73
2018-06-04T01:04:12.579Z,22.67
2018-06-04T01:05:50.198Z,22.63
2018-06-04T01:07:26.398Z,22.67
2018-06-04T01:09:07.143Z,22.66
2018-06-04T01:10:43.893Z,22.84
2018-06-04T01:12:20.028Z,23.03
2018-06-04T01:13:57.611Z,22.85
2018-06-04T01:15:34.820Z,22.61
2018-06-04T01:17:12.043Z,22.47
2018-06-04T01:18:49.118Z,22.38
2018-06-04T01:20:25.967Z,22.44
2018-06-04T01:22:02.748Z,22.32
2018-06-04T01:23:39.334Z,22.13
2018-06-04T01:25:15.646Z,22.24
2018-06-04T01:26:52.686Z,22.22
2018-06-04T01:28:29.364Z,22.27
2018-06-04T01:30:06.345Z,22.25
2018-06-04T01:31:43.373Z,22.16
2018-06-04T01:33:20.271Z,22.00
2018-06-04T01:35:00.186Z,21.94
2018-06-04T01:36:37.440Z,21.82
2018-06-04T01:38:13.761Z,21.80
2018-06-04T01:39:52.079Z,21.90
2018-06-04T01:41:29.335Z,21.96
2018-06-04T01:43:05.664Z,22.23
2018-06-04T01:44:42.248Z,22.18
2018-06-04T01:46:18.765Z,22.01
2018-06-04T01:47:58.745Z,22.02
2018-06-04T01:49:35.102Z,22.17
2018-06-04T01:51:11.627Z,22.14
2018-06-04T01:55:59.873Z,21.98
2018-06-04T01:57:36.146Z,22.01
2018-06-04T01:59:12.466Z,22.03
2018-06-04T02:00:49.640Z,22.02
2018-06-04T02:02:26.444Z,21.95
2018-06-04T02:04:03.024Z,21.86
2018-06-04T02:05:40.466Z,21.95
2018-06-04T02:07:17.354Z,22.03
2018-06-04T02:08:53.901Z,21.99
2018-06-04T02:10:30.194Z,21.99
2018-06-04T02:12:07.128Z,22.06
2018-06-04T02:13:44.349Z,22.11
2018-06-04T02:15:23.424Z,21.91
2018-06-04T02:17:00.699Z,21.79
2018-06-04T02:18:38.070Z,21.42
2018-06-04T02:20:15.087Z,20.96
2018-06-04T02:21:51.886Z,20.66
2018-06-04T02:23:28.227Z,20.38
2018-06-04T02:25:04.927Z,20.33
2018-06-04T02:26:42.875Z,20.31
2018-06-04T02:28:19.630Z,20.26
2018-06-04T02:29:56.983Z,20.58
2018-06-04T02:31:33.778Z,21.00
2018-06-04T02:33:10.079Z,21.29
2018-06-04T02:34:46.464Z,21.50
2018-06-04T02:36:22.817Z,21.60
2018-06-04T02:37:59.532Z,21.79
2018-06-04T02:39:36.413Z,21.89
2018-06-04T02:41:12.767Z,21.88
2018-06-04T02:42:49.548Z,21.91
2018-06-04T02:44:25.880Z,21.92
2018-06-04T02:46:03.016Z,21.89
2018-06-04T02:47:40.766Z,21.83
2018-06-04T02:49:18.610Z,21.67
2018-06-04T02:50:54.963Z,21.63
2018-06-04T02:52:32.659Z,21.57
2018-06-04T02:54:08.978Z,21.47
2018-06-04T02:55:45.520Z,21.47
2018-06-04T02:57:22.418Z,21.50
2018-06-04T02:58:59.178Z,21.54
2018-06-04T03:00:36.546Z,21.72
2018-06-04T03:02:13.046Z,21.89
2018-06-04T03:05:21.163Z,22.17
2018-06-04T03:06:58.012Z,22.20
2018-06-04T03:08:34.300Z,22.27
2018-06-04T03:10:10.582Z,22.16
2018-06-04T03:11:47.487Z,22.19
2018-06-04T03:13:24.080Z,22.28
2018-06-04T03:15:00.453Z,22.14
2018-06-04T03:16:38.501Z,22.14
2018-06-04T03:18:16.597Z,22.12
2018-06-04T03:19:53.431Z,21.96
2018-06-04T03:21:29.933Z,21.97
2018-06-04T03:23:06.177Z,21.95
2018-06-04T03:24:43.388Z,21.88
2018-06-04T03:26:19.666Z,21.84
2018-06-04T03:27:56.031Z,21.55
2018-06-04T03:29:32.334Z,21.60
2018-06-04T03:31:09.326Z,21.40
2018-06-04T03:32:46.337Z,21.25
2018-06-04T03:34:25.134Z,21.48
2018-06-04T03:36:02.760Z,21.47
2018-06-04T03:37:39.181Z,21.30
2018-06-04T03:39:15.390Z,21.38
2018-06-04T03:40:52.094Z,21.36
2018-06-04T03:42:28.726Z,21.23
2018-06-04T03:44:06.365Z,21.18
2018-06-04T03:45:43.282Z,21.34
2018-06-04T03:47:19.587Z,21.61
2018-06-04T03:48:56.748Z,21.64
2018-06-04T03:50:33.366Z,21.71
2018-06-04T03:52:09.512Z,21.99
2018-06-04T03:53:46.418Z,22.30
2018-06-04T03:55:22.725Z,22.64
2018-06-04T03:56:59.656Z,22.90
2018-06-04T03:58:37.233Z,22.70
2018-06-04T04:00:15.191Z,22.66
2018-06-04T04:01:52.473Z,22.59
2018-06-04T04:03:29.194Z,22.33
2018-06-04T04:05:05.569Z,22.57
2018-06-04T04:06:41.843Z,22.95
2018-06-04T04:08:18.136Z,22.90
2018-06-04T04:09:55.063Z,23.04
2018-06-04T04:11:31.271Z,23.17
2018-06-04T04:13:07.979Z,23.61
2018-06-04T04:14:44.734Z,24.04
2018-06-04T04:16:22.154Z,24.63
2018-06-04T04:17:58.812Z,25.04
2018-06-04T04:19:35.959Z,25.19
2018-06-04T04:21:12.187Z,25.14
2018-06-04T04:22:50.584Z,24.81
2018-06-04T04:24:26.944Z,24.29
2018-06-04T04:26:03.264Z,24.33
2018-06-04T04:27:39.581Z,24.19
2018-06-04T04:29:16.392Z,24.28
2018-06-04T04:30:53.200Z,24.37
2018-06-04T04:32:29.555Z,24.14
2018-06-04T04:34:05.920Z,24.31
2018-06-04T04:35:45.566Z,24.49
2018-06-04T04:37:21.832Z,24.91
2018-06-04T04:38:58.041Z,25.40
2018-06-04T04:40:34.353Z,25.34
2018-06-04T04:42:11.517Z,25.13
2018-06-04T04:43:49.426Z,25.34
2018-06-04T04:45:27.778Z,25.38
2018-06-04T04:47:04.486Z,25.64
2018-06-04T04:48:41.149Z,25.45
2018-06-04T04:50:20.238Z,25.08
2018-06-04T04:51:56.760Z,25.49
2018-06-04T04:53:32.969Z,26.16
2018-06-04T04:55:09.259Z,26.61
2018-06-04T04:56:45.567Z,26.48
2018-06-04T04:58:21.806Z,26.54
2018-06-04T04:59:58.091Z,26.72
2018-06-04T05:01:35.940Z,26.90
2018-06-04T05:03:12.175Z,26.93
2018-06-04T05:04:48.779Z,26.97
2018-06-04T05:06:25.094Z,26.68
2018-06-04T05:08:01.803Z,25.82
2018-06-04T05:09:38.163Z,25.89
2018-06-04T05:11:14.457Z,25.89
2018-06-04T05:12:51.064Z,26.13
2018-06-04T05:14:27.829Z,25.43
2018-06-04T05:16:04.493Z,25.04
2018-06-04T05:17:40.858Z,24.60
2018-06-04T05:19:17.120Z,24.20
2018-06-04T05:20:53.980Z,24.52
2018-06-04T05:22:30.212Z,25.09
2018-06-04T05:24:11.523Z,25.48
2018-06-04T05:25:47.798Z,25.19
2018-06-04T05:27:24.467Z,25.18
2018-06-04T05:29:01.710Z,25.50
2018-06-04T05:30:39.205Z,26.22
2018-06-04T05:32:15.478Z,26.88
2018-06-04T05:33:52.437Z,27.38
2018-06-04T05:35:28.964Z,27.71
2018-06-04T05:37:07.823Z,27.90
2018-06-04T05:38:44.093Z,27.90
2018-06-04T05:40:20.520Z,28.08
2018-06-04T05:41:56.895Z,28.31
2018-06-04T05:43:33.203Z,28.53
2018-06-04T05:45:09.539Z,28.53
2018-06-04T05:46:46.533Z,28.47
2018-06-04T05:48:22.845Z,27.53
2018-06-04T05:49:59.070Z,27.06
2018-06-04T05:51:35.280Z,27.29
2018-06-04T05:53:12.039Z,27.77
2018-06-04T05:54:48.301Z,28.13
2018-06-04T05:56:24.578Z,27.69
2018-06-04T05:58:00.828Z,26.99
2018-06-04T05:59:37.507Z,26.85
2018-06-04T06:01:14.179Z,26.53
2018-06-04T06:02:50.613Z,26.91
2018-06-04T06:04:26.976Z,27.65
2018-06-04T06:06:03.563Z,28.16
2018-06-04T06:07:39.787Z,28.55
2018-06-04T06:09:16.105Z,28.55
2018-06-04T06:10:52.537Z,28.80
2018-06-04T06:12:29.244Z,29.09
2018-06-04T06:14:06.186Z,28.91
2018-06-04T06:15:42.658Z,28.52
2018-06-04T06:17:18.977Z,28.03
2018-06-04T06:18:55.618Z,28.43
2018-06-04T06:20:31.974Z,27.90
2018-06-04T06:22:09.550Z,27.55
2018-06-04T06:23:45.776Z,28.09
2018-06-04T06:25:22.555Z,28.20
2018-06-04T06:26:58.925Z,28.09
2018-06-04T06:28:35.189Z,27.66
2018-06-04T06:30:11.557Z,27.63
2018-06-04T06:31:48.433Z,28.09
2018-06-04T06:33:24.934Z,28.14
2018-06-04T06:35:01.243Z,27.86
2018-06-04T06:36:37.560Z,27.61
2018-06-04T06:38:14.281Z,28.00
2018-06-04T06:39:51.383Z,28.33
2018-06-04T06:41:28.062Z,28.55
2018-06-04T06:43:04.434Z,29.08
2018-06-04T06:44:41.550Z,29.17
2018-06-04T06:46:18.184Z,29.13
2018-06-04T06:47:54.785Z,28.60
2018-06-04T06:49:31.175Z,27.33
2018-06-04T06:51:07.842Z,26.62
2018-06-04T06:52:44.369Z,26.71
2018-06-04T06:54:21.680Z,27.13
2018-06-04T06:56:00.065Z,27.57
2018-06-04T06:57:36.433Z,27.29
2018-06-04T06:59:13.571Z,27.39
2018-06-04T07:00:50.289Z,27.28
2018-06-04T07:02:28.273Z,27.78
2018-06-04T07:04:04.534Z,27.83
2018-06-04T07:05:41.177Z,27.77
2018-06-04T07:07:17.492Z,28.35
2018-06-04T07:08:54.381Z,28.21
2018-06-04T07:10:30.669Z,27.98
2018-06-04T07:12:07.993Z,27.39
2018-06-04T07:13:44.263Z,27.72
2018-06-04T07:15:21.098Z,28.27
2018-06-04T07:16:58.836Z,28.39
2018-06-04T07:18:35.179Z,28.52
2018-06-04T07:20:12.338Z,28.42
2018-06-04T07:21:48.788Z,28.38
2018-06-04T07:23:25.147Z,28.58
2018-06-04T07:25:01.510Z,27.99
2018-06-04T07:26:37.738Z,27.65
2018-06-04T07:28:14.414Z,27.48
2018-06-04T07:29:53.211Z,27.55
2018-06-04T07:31:30.366Z,28.31
2018-06-04T07:33:07.811Z,28.56
2018-06-04T07:34:44.962Z,28.50
2018-06-04T07:36:21.856Z,28.53
2018-06-04T07:37:59.021Z,28.72
2018-06-04T07:39:35.486Z,28.01
2018-06-04T07:41:12.283Z,27.78
2018-06-04T07:42:48.684Z,27.96
2018-06-04T07:44:25.007Z,28.23
2018-06-04T07:46:01.656Z,28.31
2018-06-04T07:47:38.287Z,27.84
2018-06-04T07:49:14.584Z,27.33
2018-06-04T07:50:52.265Z,26.77
2018-06-04T07:52:28.653Z,26.46
2018-06-04T07:54:06.932Z,26.27
2018-06-04T07:55:43.221Z,26.70
2018-06-04T07:57:19.929Z,27.00
2018-06-04T07:58:57.231Z,26.75
2018-06-04T08:00:34.793Z,26.55
2018-06-04T08:02:12.035Z,27.23
2018-06-04T08:03:49.405Z,27.53
2018-06-04T08:05:25.726Z,27.68
2018-06-04T08:07:03.754Z,27.40
2018-06-04T08:08:40.423Z,27.46
2018-06-04T08:10:17.199Z,27.38
2018-06-04T08:11:53.599Z,26.82
2018-06-04T08:13:31.495Z,26.88
2018-06-04T08:15:07.925Z,27.06
2018-06-04T08:16:45.810Z,26.75
2018-06-04T08:18:24.453Z,26.40
2018-06-04T08:20:01.096Z,26.84
2018-06-04T08:21:37.473Z,26.62
2018-06-04T08:23:13.826Z,26.31
2018-06-04T08:24:50.073Z,26.40
2018-06-04T08:26:26.729Z,26.32
2018-06-04T08:28:03.246Z,26.56
2018-06-04T08:29:39.610Z,26.90
2018-06-04T08:31:16.690Z,26.99
2018-06-04T08:32:53.074Z,27.47
2018-06-04T08:34:29.801Z,27.83
2018-06-04T08:36:06.387Z,27.95
2018-06-04T08:37:43.048Z,27.66
2018-06-04T08:39:19.312Z,27.78
2018-06-04T08:40:55.664Z,27.90
2018-06-04T08:42:32.009Z,28.32
2018-06-04T08:44:09.130Z,28.52
2018-06-04T08:45:45.690Z,28.00
2018-06-04T08:47:21.912Z,27.75
2018-06-04T08:48:58.115Z,27.93
2018-06-04T08:50:34.682Z,27.76
2018-06-04T08:52:13.001Z,27.39
2018-06-04T08:53:49.205Z,26.88
2018-06-04T08:55:25.502Z,26.76
2018-06-04T08:57:01.748Z,26.81
2018-06-04T08:58:37.967Z,26.86
2018-06-04T09:00:16.833Z,27.11
2018-06-04T09:01:53.401Z,27.42
2018-06-04T09:03:29.902Z,27.27
2018-06-04T09:05:06.267Z,26.89
2018-06-04T09:06:42.509Z,26.75
2018-06-04T09:08:18.812Z,26.82
2018-06-04T09:09:55.426Z,27.09
2018-06-04T09:11:31.537Z,27.41
2018-06-04T09:13:08.029Z,27.49
2018-06-04T09:14:44.364Z,27.95
2018-06-04T09:16:21.290Z,28.18
2018-06-04T09:17:57.688Z,27.66
2018-06-04T09:19:33.841Z,27.87
2018-06-04T09:21:10.337Z,28.24
2018-06-04T09:22:46.879Z,28.28
2018-06-04T09:24:23.973Z,28.38
2018-06-04T09:26:00.306Z,28.70
2018-06-04T09:27:36.576Z,28.69
2018-06-04T09:29:13.490Z,28.75
2018-06-04T09:30:50.414Z,28.61
2018-06-04T09:32:26.783Z,28.28
2018-06-04T09:34:03.120Z,28.38
2018-06-04T09:35:39.893Z,28.61
2018-06-04T09:37:16.104Z,28.18
2018-06-04T09:38:52.292Z,27.75
2018-06-04T09:40:28.531Z,27.77
2018-06-04T09:42:05.169Z,27.88
2018-06-04T09:43:41.443Z,28.13
2018-06-04T09:45:19.041Z,28.21
2018-06-04T09:46:55.546Z,28.48
2018-06-04T09:48:32.109Z,28.51
2018-06-04T09:50:08.628Z,28.48
2018-06-04T09:51:45.070Z,28.34
2018-06-04T09:53:21.352Z,28.41
2018-06-04T09:54:57.840Z,28.55
2018-06-04T09:56:34.056Z,28.46
2018-06-04T09:58:10.543Z,28.61
2018-06-04T09:59:46.773Z,28.67
2018-06-04T10:01:23.602Z,28.01
2018-06-04T10:03:00.048Z,27.76
2018-06-04T10:04:36.322Z,27.63
2018-06-04T10:06:12.859Z,27.41
2018-06-04T10:07:49.044Z,27.17
2018-06-04T10:09:26.304Z,26.99
2018-06-04T10:11:02.772Z,27.04
2018-06-04T10:12:39.057Z,27.31
2018-06-04T10:14:15.504Z,27.60
2018-06-04T10:15:51.991Z,27.78
2018-06-04T10:17:29.012Z,27.53
2018-06-04T10:19:05.296Z,27.76
2018-06-04T10:20:41.875Z,27.88
2018-06-04T10:22:18.380Z,27.95
2018-06-04T10:23:54.504Z,27.92
2018-06-04T10:25:31.346Z,28.01
2018-06-04T10:27:08.029Z,28.30
2018-06-04T10:28:44.329Z,28.34
2018-06-04T10:30:20.861Z,28.38
2018-06-04T10:31:57.658Z,28.65
2018-06-04T10:33:35.013Z,28.50
2018-06-04T10:35:11.763Z,28.39
2018-06-04T10:36:49.158Z,28.23
2018-06-04T10:38:25.424Z,27.98
2018-06-04T10:40:02.056Z,27.29
2018-06-04T10:41:38.325Z,27.20
2018-06-04T10:43:14.829Z,27.71
2018-06-04T10:44:51.005Z,28.02
2018-06-04T10:46:27.578Z,28.19
2018-06-04T10:48:04.073Z,28.12
2018-06-04T10:49:40.385Z,28.17
2018-06-04T10:51:16.901Z,28.16
2018-06-04T10:52:53.580Z,27.99
2018-06-04T10:54:30.425Z,27.43
2018-06-04T10:56:06.779Z,27.13
2018-06-04T10:57:43.213Z,26.99
2018-06-04T10:59:19.860Z,27.24
2018-06-04T11:00:56.212Z,27.32
2018-06-04T11:02:33.166Z,27.29
2018-06-04T11:04:09.695Z,27.87
2018-06-04T11:05:46.283Z,28.05
2018-06-04T11:07:22.668Z,28.15
2018-06-04T11:08:59.001Z,28.30
2018-06-04T11:10:36.122Z,28.31
2018-06-04T11:12:13.154Z,28.42
2018-06-04T11:13:49.460Z,28.36
2018-06-04T11:15:29.320Z,28.25
2018-06-04T11:17:05.625Z,28.57
2018-06-04T11:18:42.248Z,28.24
2018-06-04T11:20:18.759Z,28.28
2018-06-04T11:21:55.607Z,27.78
2018-06-04T11:23:32.837Z,27.78
2018-06-04T11:25:09.584Z,27.83
2018-06-04T11:26:46.020Z,28.28
2018-06-04T11:28:22.471Z,28.20
2018-06-04T11:29:58.921Z,28.02
2018-06-04T11:31:35.817Z,27.63
2018-06-04T11:33:12.206Z,27.43
2018-06-04T11:34:49.897Z,27.39
2018-06-04T11:36:26.904Z,27.36
2018-06-04T11:38:04.390Z,27.46
2018-06-04T11:39:40.750Z,27.63
2018-06-04T11:41:17.218Z,27.79
2018-06-04T11:42:54.364Z,27.58
2018-06-04T11:44:30.929Z,27.40
2018-06-04T11:46:11.854Z,27.67
2018-06-04T11:47:52.497Z,28.04
2018-06-04T11:49:29.283Z,28.47
2018-06-04T11:51:07.224Z,28.63
2018-06-04T11:52:48.079Z,28.39
2018-06-04T11:54:25.216Z,28.29
2018-06-04T11:56:02.013Z,28.52
2018-06-04T11:57:41.639Z,28.45
2018-06-04T11:59:19.744Z,28.14
2018-06-04T12:00:58.250Z,28.14
2018-06-04T12:02:38.243Z,28.09
2018-06-04T12:04:14.704Z,28.31
2018-06-04T12:05:52.574Z,28.81
2018-06-04T12:07:29.459Z,29.01
2018-06-04T12:09:09.165Z,29.08
2018-06-04T12:10:48.776Z,29.01
2018-06-04T12:12:26.615Z,28.95
2018-06-04T12:14:03.471Z,29.14
2018-06-04T12:15:40.228Z,29.26
2018-06-04T12:17:16.551Z,29.47
2018-06-04T12:18:52.837Z,29.54
2018-06-04T12:20:29.490Z,29.11
2018-06-04T12:22:05.920Z,28.90
2018-06-04T12:23:43.119Z,28.64
2018-06-04T12:25:22.900Z,28.67
2018-06-04T12:27:00.234Z,28.71
2018-06-04T12:28:37.787Z,28.62
2018-06-04T12:30:16.538Z,28.65
2018-06-04T12:31:53.711Z,28.76
2018-06-04T12:33:30.629Z,28.72
2018-06-04T12:35:08.484Z,28.18
2018-06-04T12:36:54.381Z,28.01
2018-06-04T12:38:31.622Z,28.48
2018-06-04T12:40:09.784Z,28.85
2018-06-04T12:41:47.947Z,29.04
2018-06-04T12:43:24.396Z,28.89
2018-06-04T12:45:01.387Z,28.97
2018-06-04T12:46:41.051Z,29.09
2018-06-04T12:48:19.263Z,29.21
2018-06-04T12:49:56.501Z,29.29
2018-06-04T12:51:33.066Z,29.27
2018-06-04T12:53:10.923Z,29.20
2018-06-04T12:54:48.259Z,28.89
2018-06-04T12:56:25.553Z,28.76
2018-06-04T12:58:02.509Z,28.55
2018-06-04T12:59:40.749Z,28.59
2018-06-04T13:01:18.783Z,28.62
2018-06-04T13:02:55.077Z,28.62
2018-06-04T13:04:31.515Z,28.63
2018-06-04T13:06:08.233Z,28.66
2018-06-04T13:07:47.582Z,28.71
2018-06-04T13:09:23.927Z,28.68
2018-06-04T13:11:00.304Z,28.73
2018-06-04T13:12:38.372Z,28.58
2018-06-04T13:16:25.464Z,28.58
2018-06-04T13:18:23.834Z,28.64
2018-06-04T13:20:00.823Z,28.51
2018-06-04T13:21:38.173Z,28.43
2018-06-04T13:23:15.403Z,28.26
2018-06-04T13:24:53.960Z,28.22
2018-06-04T13:26:31.476Z,28.35
2018-06-04T13:28:08.599Z,28.36
2018-06-04T13:29:46.341Z,28.48
2018-06-04T13:31:24.636Z,28.70
2018-06-04T13:33:02.552Z,29.03
2018-06-04T13:34:42.309Z,28.99
2018-06-04T13:36:18.635Z,28.71
2018-06-04T13:37:59.832Z,28.52
2018-06-04T13:39:36.167Z,28.37
2018-06-04T13:41:15.704Z,28.08
2018-06-04T13:42:52.147Z,28.25
2018-06-04T13:44:29.683Z,28.26
2018-06-04T13:46:07.756Z,28.31
2018-06-04T13:47:44.664Z,28.16
2018-06-04T13:49:21.031Z,28.31
2018-06-04T13:50:58.011Z,28.51
2018-06-04T13:52:34.428Z,28.28
2018-06-04T13:54:11.839Z,28.42
2018-06-04T13:55:49.013Z,28.74
2018-06-04T13:57:27.692Z,28.62
2018-06-04T13:59:04.687Z,28.37
2018-06-04T14:00:45.427Z,28.15
2018-06-04T14:02:23.123Z,28.10
2018-06-04T14:04:02.225Z,28.17
2018-06-04T14:05:39.250Z,27.89
2018-06-04T14:07:18.576Z,27.81
2018-06-04T14:08:55.746Z,28.00
2018-06-04T14:10:32.701Z,27.89
2018-06-04T14:12:09.148Z,27.92
2018-06-04T14:13:47.115Z,27.93
2018-06-04T14:15:27.780Z,27.99
2018-06-04T14:17:04.508Z,28.10
2018-06-04T14:18:41.807Z,28.01
2018-06-04T14:20:18.218Z,27.81
2018-06-04T14:21:58.024Z,27.87
2018-06-04T14:23:35.732Z,27.90
2018-06-04T14:25:12.736Z,28.10
2018-06-04T14:26:50.910Z,28.30
2018-06-04T14:28:29.146Z,28.17
2018-06-04T14:30:09.961Z,28.23
2018-06-04T14:31:48.506Z,28.48
2018-06-04T14:33:25.455Z,28.54
2018-06-04T14:35:05.311Z,28.52
2018-06-04T14:36:43.415Z,28.57
2018-06-04T14:38:24.462Z,28.56
2018-06-04T14:40:02.005Z,28.55
2018-06-04T14:41:42.284Z,28.58
2018-06-04T14:43:21.824Z,28.65
2018-06-04T14:44:59.423Z,28.50
2018-06-04T14:46:39.482Z,28.45
2018-06-04T14:48:18.466Z,28.15
2018-06-04T14:49:57.635Z,27.68
2018-06-04T14:51:34.897Z,27.87
2018-06-04T14:53:14.036Z,27.83
2018-06-04T14:54:52.507Z,27.74
2018-06-04T14:56:29.978Z,27.44
2018-06-04T14:58:09.832Z,27.39
2018-06-04T14:59:46.738Z,27.54
2018-06-04T15:01:25.081Z,27.72
2018-06-04T15:03:03.006Z,27.80
2018-06-04T15:04:41.951Z,27.87
2018-06-04T15:06:21.080Z,27.86
2018-06-04T15:07:59.360Z,27.69
2018-06-04T15:09:40.213Z,27.78
2018-06-04T15:11:17.931Z,27.84
2018-06-04T15:12:54.842Z,27.95
2018-06-04T15:14:31.797Z,27.91
2018-06-04T15:16:09.471Z,27.93
2018-06-04T15:17:48.232Z,27.95
2018-06-04T15:19:25.641Z,27.85
2018-06-04T15:21:03.921Z,27.81
2018-06-04T15:22:42.256Z,27.73
2018-06-04T15:24:24.689Z,27.68
2018-06-04T15:26:04.580Z,27.56
2018-06-04T15:27:41.030Z,27.57
2018-06-04T15:29:18.390Z,27.51
2018-06-04T15:30:59.616Z,27.49
2018-06-04T15:32:42.597Z,27.23
2018-06-04T15:34:19.973Z,27.25
2018-06-04T15:35:59.298Z,27.33
2018-06-04T15:37:37.448Z,27.29
2018-06-04T15:39:17.284Z,27.36
2018-06-04T15:40:53.723Z,27.56
2018-06-04T15:42:31.311Z,27.65
2018-06-04T15:44:09.367Z,27.72
2018-06-04T15:46:21.827Z,27.66
2018-06-04T15:48:00.644Z,27.69
2018-06-04T15:49:40.730Z,27.64
2018-06-04T15:51:17.732Z,27.59
2018-06-04T15:52:54.569Z,27.58
2018-06-04T15:54:33.535Z,27.55
2018-06-04T15:56:10.948Z,27.54
2018-06-04T15:57:50.296Z,27.43
2018-06-04T15:59:27.338Z,27.32
2018-06-04T16:01:04.580Z,27.22
2018-06-04T16:02:41.751Z,27.16
2018-06-04T16:04:18.070Z,27.19
2018-06-04T16:05:54.375Z,27.05
2018-06-04T16:07:31.335Z,27.10
2018-06-04T16:09:14.383Z,26.87
2018-06-04T16:10:51.581Z,27.05
2018-06-04T16:12:28.607Z,27.19
2018-06-04T16:14:05.539Z,27.49
2018-06-04T16:15:42.370Z,27.11
2018-06-04T16:17:20.705Z,27.16
2018-06-04T16:19:04.517Z,26.98
2018-06-04T16:20:44.675Z,27.03
2018-06-04T16:22:22.611Z,27.02
2018-06-04T16:24:03.338Z,27.06
2018-06-04T16:27:24.044Z,27.23
2018-06-04T16:29:02.281Z,27.31
2018-06-04T16:30:42.911Z,27.33
2018-06-04T16:32:21.555Z,27.14
2018-06-04T16:33:58.837Z,26.97
2018-06-04T16:35:37.453Z,26.97
2018-06-04T16:37:16.636Z,27.08
2018-06-04T16:38:58.319Z,27.23
2018-06-04T16:40:34.877Z,27.29
2018-06-04T16:42:13.433Z,27.14
2018-06-04T16:43:51.742Z,27.06
2018-06-04T16:45:31.357Z,27.10
2018-06-04T16:47:11.855Z,26.84
2018-06-04T16:48:51.664Z,27.05
2018-06-04T16:50:31.597Z,27.03
2018-06-04T16:52:10.007Z,27.00
2018-06-04T16:53:48.627Z,27.16
2018-06-04T16:55:27.161Z,27.28
2018-06-04T16:57:05.282Z,27.20
2018-06-04T16:58:45.925Z,27.12
2018-06-04T17:00:28.448Z,27.02
2018-06-04T17:02:10.281Z,26.89
2018-06-04T17:03:48.604Z,27.00
2018-06-04T17:05:25.708Z,27.14
2018-06-04T17:07:02.309Z,27.12
2018-06-04T17:08:38.872Z,27.21
2018-06-04T17:10:15.616Z,26.86
2018-06-04T17:11:53.077Z,26.82
2018-06-04T17:13:30.020Z,26.69
2018-06-04T17:15:08.637Z,26.56
2018-06-04T17:16:46.753Z,26.39
2018-06-04T17:20:09.037Z,26.59
2018-06-04T17:21:56.914Z,26.59
2018-06-04T17:23:34.522Z,26.48
2018-06-04T17:25:12.256Z,26.56
2018-06-04T17:26:51.560Z,26.51
2018-06-04T17:28:31.756Z,26.64
2018-06-04T17:30:12.424Z,26.47
2018-06-04T17:32:01.307Z,26.51
2018-06-04T17:33:40.672Z,26.48
2018-06-04T17:35:34.223Z,26.22
2018-06-04T17:37:16.447Z,26.12
2018-06-04T17:38:55.606Z,26.18
2018-06-04T17:40:35.047Z,26.44
2018-06-04T17:42:12.062Z,26.57
2018-06-04T17:43:51.065Z,26.54
2018-06-04T17:45:29.380Z,26.28
2018-06-04T17:47:07.174Z,26.07
2018-06-04T17:48:46.132Z,26.17
2018-06-04T17:50:22.565Z,26.12
2018-06-04T17:52:03.512Z,26.20
2018-06-04T17:53:41.764Z,26.33
2018-06-04T17:55:22.506Z,26.28
2018-06-04T17:57:00.578Z,26.43
2018-06-04T17:58:37.074Z,26.39
2018-06-04T18:00:34.090Z,26.41
2018-06-04T18:02:10.737Z,26.29
2018-06-04T18:03:48.683Z,26.40
2018-06-04T18:05:25.336Z,26.70
2018-06-04T18:07:02.440Z,26.77
2018-06-04T18:08:39.291Z,26.65
2018-06-04T18:10:17.371Z,26.54
2018-06-04T18:11:55.510Z,26.53
2018-06-04T18:13:31.932Z,26.54
2018-06-04T18:15:11.397Z,26.71
2018-06-04T18:18:21.585Z,26.32
2018-06-04T18:19:59.074Z,26.52
2018-06-04T18:21:38.473Z,26.56
2018-06-04T18:23:16.710Z,26.56
2018-06-04T18:24:58.318Z,26.57
2018-06-04T18:26:38.147Z,26.58
2018-06-04T18:28:16.261Z,26.52
2018-06-04T18:31:42.697Z,26.35
2018-06-04T18:33:20.266Z,26.36
2018-06-04T18:34:59.289Z,26.02
2018-06-04T18:36:43.468Z,26.07
2018-06-04T18:38:22.678Z,25.89
2018-06-04T18:39:59.343Z,25.83
2018-06-04T18:41:36.657Z,26.01
2018-06-04T18:43:17.095Z,26.18
2018-06-04T18:45:01.043Z,26.38
2018-06-04T18:46:43.461Z,26.34
2018-06-04T18:48:24.797Z,26.41
2018-06-04T18:50:07.223Z,26.37
2018-06-04T18:51:52.418Z,26.26
2018-06-04T18:53:31.358Z,26.34
2018-06-04T18:55:12.435Z,26.27
2018-06-04T18:56:51.053Z,26.27
2018-06-04T18:58:31.244Z,26.34
2018-06-04T19:00:09.895Z,26.24
2018-06-04T19:01:48.358Z,26.18
2018-06-04T19:03:26.369Z,25.92
2018-06-04T19:05:03.553Z,26.09
2018-06-04T19:06:43.201Z,25.72
2018-06-04T19:08:20.523Z,25.50
2018-06-04T19:09:59.740Z,25.44
2018-06-04T19:11:36.312Z,25.33
2018-06-04T19:13:17.830Z,25.22
2018-06-04T19:14:59.453Z,25.20
2018-06-04T19:16:38.530Z,25.49
2018-06-04T19:18:16.011Z,25.62
2018-06-04T19:19:55.165Z,25.76
2018-06-04T19:21:34.391Z,25.86
2018-06-04T19:23:14.226Z,25.79
2018-06-04T19:24:51.173Z,25.69
2018-06-04T19:26:30.305Z,25.54
2018-06-04T19:28:08.712Z,25.54
2018-06-04T19:29:49.294Z,25.68
2018-06-04T19:31:28.471Z,25.68
2018-06-04T19:33:10.276Z,25.59
2018-06-04T19:36:30.530Z,25.67
2018-06-04T19:38:09.390Z,25.36
2018-06-04T19:39:49.510Z,25.22
2018-06-04T19:41:30.002Z,25.40
2018-06-04T19:43:08.418Z,25.03
2018-06-04T19:44:51.640Z,25.02
2018-06-04T19:46:30.663Z,24.87
2018-06-04T19:48:12.069Z,25.03
2018-06-04T19:49:50.282Z,25.22
2018-06-04T19:51:31.873Z,25.47
2018-06-04T19:53:08.723Z,25.67
2018-06-04T19:54:47.449Z,25.68
2018-06-04T19:56:25.528Z,25.75
2018-06-04T19:58:02.512Z,25.64
2018-06-04T19:59:41.900Z,25.59
2018-06-04T20:01:20.820Z,25.50
2018-06-04T20:03:00.671Z,25.31
2018-06-04T20:04:37.529Z,25.36
2018-06-04T20:06:15.194Z,25.44
2018-06-04T20:07:53.926Z,25.52
2018-06-04T20:09:30.450Z,25.44
2018-06-04T20:11:13.627Z,25.26
2018-06-04T20:12:50.137Z,25.19
2018-06-04T20:16:05.346Z,24.93
2018-06-04T20:19:19.489Z,25.08
2018-06-04T20:20:59.727Z,25.16
2018-06-04T20:22:38.554Z,25.22
2018-06-04T20:24:17.572Z,25.24
2018-06-04T20:25:57.552Z,25.08
2018-06-04T20:27:35.023Z,24.95
2018-06-04T20:29:12.811Z,24.80
2018-06-04T20:30:51.565Z,24.73
2018-06-04T20:32:30.326Z,24.46
2018-06-04T20:34:08.322Z,24.51
2018-06-04T20:35:48.220Z,24.57
2018-06-04T20:37:25.352Z,24.60
2018-06-04T20:39:05.483Z,24.72
2018-06-04T20:40:42.631Z,24.76
2018-06-04T20:42:24.191Z,24.74
2018-06-04T20:44:04.952Z,24.72
2018-06-04T20:45:45.518Z,24.67
2018-06-04T20:47:23.584Z,24.66
2018-06-04T20:49:03.887Z,24.50
2018-06-04T20:50:46.579Z,24.40
2018-06-04T20:52:28.660Z,24.52
2018-06-04T20:54:05.257Z,24.45
2018-06-04T20:55:42.053Z,24.47
2018-06-04T20:57:22.329Z,24.27
2018-06-04T20:59:00.830Z,24.29
2018-06-04T21:00:41.700Z,24.24
2018-06-04T21:02:19.655Z,24.12
2018-06-04T21:03:55.999Z,24.10
2018-06-04T21:05:35.615Z,24.17
2018-06-04T21:07:16.015Z,24.15
2018-06-04T21:08:55.476Z,23.93
2018-06-04T21:10:32.861Z,23.74
2018-06-04T21:12:12.701Z,23.63
2018-06-04T21:13:53.502Z,23.54
2018-06-04T21:15:32.266Z,23.42
2018-06-04T21:17:10.621Z,23.41